createdAt,value
2022-11-27T06:01:09.441Z,30.07
2022-11-27T06:03:39.046Z,15.77
2022-11-27T06:06:08.394Z,13.93
2022-11-27T06:08:37.569Z,17.23
2022-11-27T06:11:08.506Z,15.23
2022-11-27T06:13:36.546Z,16.10
2022-11-27T06:16:09.884Z,18.47
2022-11-27T06:18:37.860Z,15.67
2022-11-27T06:21:09.496Z,19.37
2022-11-27T06:23:37.492Z,19.40
2022-11-27T06:26:15.869Z,20.20
2022-11-27T06:28:44.123Z,48.80
2022-11-27T06:31:18.252Z,27.53
2022-11-27T06:33:46.566Z,32.60
2022-11-27T06:36:14.582Z,26.90
2022-11-27T06:38:42.563Z,27.47
2022-11-27T06:41:11.657Z,33.03
2022-11-27T06:43:39.744Z,23.80
2022-11-27T06:46:08.928Z,56.13
2022-11-27T06:48:38.334Z,13.60
2022-11-27T06:51:07.434Z,14.20
2022-11-27T06:53:37.564Z,21.33
2022-11-27T06:56:05.880Z,21.67
2022-11-27T06:58:34.024Z,21.13
2022-11-27T07:01:02.413Z,18.33
2022-11-27T07:03:30.435Z,26.27
2022-11-27T07:06:02.091Z,26.67
2022-11-27T07:08:30.093Z,25.00
2022-11-27T07:11:02.668Z,23.87
2022-11-27T07:13:30.705Z,22.93
2022-11-27T07:16:00.973Z,34.50
2022-11-27T07:18:29.030Z,33.40
2022-11-27T07:20:57.024Z,30.97
2022-11-27T07:23:26.411Z,26.60
2022-11-27T07:25:54.413Z,30.53
2022-11-27T07:28:22.362Z,29.67
2022-11-27T07:30:55.725Z,44.03
2022-11-27T07:33:23.781Z,32.67
2022-11-27T07:35:51.703Z,35.77
2022-11-27T07:38:19.651Z,39.67
2022-11-27T07:40:48.957Z,35.17
2022-11-27T07:43:16.882Z,45.87
2022-11-27T07:45:44.883Z,40.00
2022-11-27T07:48:12.889Z,35.97
2022-11-27T07:50:40.887Z,27.10
2022-11-27T07:53:08.830Z,21.47
2022-11-27T07:55:38.995Z,22.03
2022-11-27T07:58:08.449Z,24.80
2022-11-27T08:00:36.598Z,23.20
2022-11-27T08:03:04.599Z,18.57
2022-11-27T08:05:34.846Z,34.77
2022-11-27T08:08:04.413Z,19.93
2022-11-27T08:10:32.646Z,16.90
2022-11-27T08:13:00.782Z,16.97
2022-11-27T08:15:30.132Z,18.67
2022-11-27T08:17:58.155Z,19.33
2022-11-27T08:20:26.230Z,20.17
2022-11-27T08:22:58.135Z,22.00
2022-11-27T08:25:29.223Z,16.70
2022-11-27T08:27:57.159Z,13.43
2022-11-27T08:30:25.221Z,15.67
2022-11-27T08:32:54.633Z,13.60
2022-11-27T08:35:22.636Z,16.63
2022-11-27T08:37:50.784Z,15.90
2022-11-27T08:40:18.977Z,15.63
2022-11-27T08:42:46.911Z,26.80
2022-11-27T08:45:14.987Z,26.97
2022-11-27T08:47:43.536Z,32.97
2022-11-27T08:50:13.025Z,26.80
2022-11-27T08:52:41.031Z,31.40
2022-11-27T08:55:09.851Z,35.03
2022-11-27T08:57:37.989Z,37.53
2022-11-27T09:00:07.701Z,38.43
2022-11-27T09:02:35.716Z,38.13
2022-11-27T09:05:05.835Z,39.60
2022-11-27T09:07:35.272Z,49.80
2022-11-27T09:10:03.306Z,32.10
2022-11-27T09:12:31.268Z,35.23
2022-11-27T09:14:59.191Z,36.73
2022-11-27T09:17:27.218Z,37.20
2022-11-27T09:19:55.203Z,38.87
2022-11-27T09:22:23.198Z,33.60
2022-11-27T09:24:52.596Z,35.27
2022-11-27T09:27:20.525Z,35.00
2022-11-27T09:29:49.653Z,31.67
2022-11-27T09:32:17.663Z,37.60
2022-11-27T09:34:45.795Z,43.17
2022-11-27T09:37:13.787Z,30.87
2022-11-27T09:39:41.794Z,31.03
2022-11-27T09:42:14.152Z,22.97
2022-11-27T09:44:45.446Z,27.07
2022-11-27T09:47:16.387Z,22.60
2022-11-27T09:49:46.462Z,37.53
2022-11-27T09:52:19.066Z,22.73
2022-11-27T09:54:54.397Z,19.73
2022-11-27T09:57:26.933Z,17.80
2022-11-27T09:59:54.950Z,25.10
2022-11-27T10:02:26.497Z,17.80
2022-11-27T10:08:06.079Z,18.57
2022-11-27T10:10:40.286Z,18.73
2022-11-27T10:13:15.960Z,18.37
2022-11-27T10:15:45.646Z,18.03
2022-11-27T10:18:16.167Z,18.00
2022-11-27T10:20:46.900Z,18.60
2022-11-27T10:23:19.783Z,14.63
2022-11-27T10:25:49.296Z,15.70
2022-11-27T10:28:24.837Z,19.07
2022-11-27T10:30:54.146Z,18.10
2022-11-27T10:33:25.183Z,19.33
2022-11-27T10:35:53.117Z,19.37
2022-11-27T10:38:22.086Z,22.40
2022-11-27T10:40:53.573Z,18.10
2022-11-27T10:43:23.548Z,19.00
2022-11-27T10:45:52.845Z,18.93
2022-11-27T10:48:20.829Z,21.53
2022-11-27T10:50:48.811Z,17.20
2022-11-27T10:53:20.910Z,17.17
2022-11-27T10:56:06.402Z,15.80
2022-11-27T10:58:37.670Z,15.23
2022-11-27T11:01:07.012Z,24.47
2022-11-27T11:03:35.138Z,16.10
2022-11-27T11:06:20.122Z,13.50
2022-11-27T11:08:49.741Z,15.67
2022-11-27T11:11:26.390Z,23.30
2022-11-27T11:13:56.132Z,15.47
2022-11-27T11:16:27.333Z,18.87
2022-11-27T11:18:58.214Z,16.00
2022-11-27T11:21:28.389Z,13.80
2022-11-27T11:24:00.039Z,18.90
2022-11-27T11:26:29.652Z,18.47
2022-11-27T11:28:59.641Z,17.97
2022-11-27T11:31:30.388Z,16.07
2022-11-27T11:33:59.883Z,17.30
2022-11-27T11:36:27.913Z,14.30
2022-11-27T11:38:55.904Z,19.83
2022-11-27T11:41:24.555Z,14.83
2022-11-27T11:43:59.036Z,17.03
2022-11-27T11:46:28.611Z,17.23
2022-11-27T11:49:01.573Z,15.90
2022-11-27T11:52:08.892Z,26.90
2022-11-27T11:54:59.238Z,17.50
2022-11-27T11:58:00.613Z,14.57
2022-11-27T12:00:43.730Z,14.33
2022-11-27T12:03:33.551Z,18.93
2022-11-27T12:06:14.024Z,25.53
2022-11-27T12:08:52.873Z,28.33
2022-11-27T12:11:22.301Z,34.20
2022-11-27T12:13:56.542Z,20.83
2022-11-27T12:16:27.599Z,25.83
2022-11-27T12:19:04.416Z,24.03
2022-11-27T12:21:37.163Z,19.93
2022-11-27T12:24:11.632Z,23.90
2022-11-27T12:26:46.647Z,25.70
2022-11-27T12:29:34.409Z,31.67
2022-11-27T12:32:23.978Z,24.33
2022-11-27T12:34:59.893Z,18.57
2022-11-27T12:37:34.865Z,22.90
2022-11-27T12:40:11.221Z,22.10
2022-11-27T12:42:41.389Z,26.40
2022-11-27T12:45:18.636Z,29.33
2022-11-27T12:47:49.889Z,27.27
2022-11-27T12:50:19.381Z,23.20
2022-11-27T12:52:49.249Z,32.43
2022-11-27T12:55:18.504Z,30.10
2022-11-27T12:57:48.263Z,29.47
2022-11-27T13:00:17.962Z,27.77
2022-11-27T13:02:51.142Z,24.43
2022-11-27T13:05:20.595Z,23.43
2022-11-27T13:07:50.050Z,33.20
2022-11-27T13:10:21.823Z,31.30
2022-11-27T13:12:51.734Z,34.90
2022-11-27T13:15:24.016Z,32.03
2022-11-27T13:17:57.710Z,30.10
2022-11-27T13:20:28.675Z,33.10
2022-11-27T13:22:56.649Z,27.33
2022-11-27T13:25:24.684Z,27.17
2022-11-27T13:27:52.856Z,22.20
2022-11-27T13:30:22.679Z,31.10
2022-11-27T13:32:52.140Z,22.33
2022-11-27T13:35:23.781Z,19.53
2022-11-27T13:37:57.511Z,22.70
2022-11-27T13:40:27.938Z,23.33
2022-11-27T13:42:56.931Z,27.07
2022-11-27T13:45:27.048Z,37.70
2022-11-27T13:47:55.134Z,29.43
2022-11-27T13:50:29.686Z,32.27
2022-11-27T13:53:00.637Z,33.60
2022-11-27T13:55:29.844Z,28.93
2022-11-27T13:57:59.450Z,22.73
2022-11-27T14:00:35.587Z,31.13
2022-11-27T14:03:03.624Z,29.93
2022-11-27T14:05:40.852Z,25.60
2022-11-27T14:08:18.222Z,28.63
2022-11-27T14:10:50.874Z,26.70
2022-11-27T14:13:21.427Z,33.80
2022-11-27T14:16:01.777Z,29.57
2022-11-27T14:18:30.312Z,29.30
2022-11-27T14:21:01.359Z,30.27
2022-11-27T14:23:33.527Z,31.23
2022-11-27T14:26:14.713Z,33.20
2022-11-27T14:28:44.117Z,28.93
2022-11-27T14:31:23.103Z,29.40
2022-11-27T14:34:14.034Z,31.43
2022-11-27T14:36:40.536Z,33.87
2022-11-27T14:39:09.238Z,40.47
2022-11-27T14:41:37.234Z,42.33
2022-11-27T14:44:05.919Z,84.90
2022-11-27T14:46:34.154Z,68.23
2022-11-27T14:49:02.125Z,62.50
2022-11-27T14:51:31.036Z,61.40
2022-11-27T14:54:01.420Z,45.60
2022-11-27T14:56:30.573Z,54.13
2022-11-27T14:58:58.548Z,56.13
2022-11-27T15:01:27.541Z,62.77
2022-11-27T15:03:59.067Z,76.93
2022-11-27T15:06:27.269Z,56.77
2022-11-27T15:09:23.615Z,50.43
2022-11-27T15:11:55.636Z,48.13
2022-11-27T15:14:24.558Z,47.13
2022-11-27T15:16:52.805Z,52.77
2022-11-27T15:19:27.564Z,45.77
2022-11-27T15:21:55.498Z,45.30
2022-11-27T15:24:34.175Z,41.07
2022-11-27T15:27:17.827Z,46.97
2022-11-27T15:30:00.937Z,43.37
2022-11-27T15:32:36.123Z,57.10
2022-11-27T15:35:14.606Z,51.40
2022-11-27T15:37:43.992Z,46.80
2022-11-27T15:40:32.449Z,46.60
2022-11-27T15:43:03.235Z,57.37
2022-11-27T15:45:33.274Z,43.87
2022-11-27T15:48:03.085Z,65.30
2022-11-27T15:50:32.487Z,104.13
2022-11-27T15:53:02.160Z,224.00
2022-11-27T15:55:33.415Z,363.13
2022-11-27T15:58:04.731Z,126.33
2022-11-27T16:00:34.451Z,90.13
2022-11-27T16:03:03.876Z,386.30
2022-11-27T16:05:32.183Z,166.33
2022-11-27T16:08:01.701Z,145.60
2022-11-27T16:10:31.097Z,117.03
2022-11-27T16:13:00.619Z,93.73
2022-11-27T16:15:33.145Z,116.03
2022-11-27T16:18:02.976Z,81.03
2022-11-27T16:20:32.768Z,78.90
2022-11-27T16:23:02.040Z,65.30
2022-11-27T16:25:31.831Z,69.30
2022-11-27T16:28:03.232Z,77.47
2022-11-27T16:30:34.639Z,66.60
2022-11-27T16:33:04.576Z,64.83
2022-11-27T16:35:34.275Z,86.43
2022-11-27T16:38:04.074Z,74.13
2022-11-27T16:40:34.934Z,73.20
2022-11-27T16:43:04.497Z,64.87
2022-11-27T16:45:36.779Z,57.47
2022-11-27T16:48:06.771Z,56.27
2022-11-27T16:50:36.498Z,48.03
2022-11-27T16:53:06.136Z,42.23
2022-11-27T16:55:35.872Z,55.80
2022-11-27T16:58:05.510Z,49.27
2022-11-27T17:00:37.350Z,60.20
2022-11-27T17:03:06.823Z,77.57
2022-11-27T17:05:39.647Z,50.10
2022-11-27T17:08:09.360Z,40.43
2022-11-27T17:10:39.104Z,38.20
2022-11-27T17:13:08.940Z,39.87
2022-11-27T17:15:40.844Z,42.00
2022-11-27T17:18:12.937Z,51.37
2022-11-27T17:20:43.226Z,38.73
2022-11-27T17:23:13.159Z,37.97
2022-11-27T17:25:42.981Z,35.90
2022-11-27T17:28:12.832Z,43.67
2022-11-27T17:30:44.360Z,44.00
2022-11-27T17:33:14.264Z,52.30
2022-11-27T17:35:44.421Z,78.67
2022-11-27T17:38:14.490Z,42.53
2022-11-27T17:40:44.351Z,51.23
2022-11-27T17:43:14.093Z,52.90
2022-11-27T17:45:45.664Z,48.73
2022-11-27T17:48:15.643Z,50.53
2022-11-27T17:50:45.656Z,27.50
2022-11-27T17:53:15.604Z,26.63
2022-11-27T17:55:45.488Z,33.00
2022-11-27T17:58:15.550Z,27.37
2022-11-27T18:00:49.865Z,37.10
2022-11-27T18:03:19.804Z,33.87
2022-11-27T18:05:49.843Z,42.83
2022-11-27T18:08:19.647Z,38.73
2022-11-27T18:10:49.485Z,34.80
2022-11-27T18:13:19.259Z,36.33
2022-11-27T18:15:50.740Z,58.10
2022-11-27T18:18:20.655Z,62.27
2022-11-27T18:20:51.197Z,52.97
2022-11-27T18:23:21.000Z,70.33
2022-11-27T18:25:50.821Z,66.17
2022-11-27T18:28:20.819Z,47.00
2022-11-27T18:30:52.049Z,60.77
2022-11-27T18:33:24.112Z,52.63
2022-11-27T18:35:58.081Z,51.23
2022-11-27T18:38:27.989Z,63.57
2022-11-27T18:40:58.318Z,49.77
2022-11-27T18:43:28.242Z,46.77
2022-11-27T18:45:59.931Z,49.53
2022-11-27T18:48:30.012Z,54.87
2022-11-27T18:51:09.296Z,63.50
2022-11-27T18:53:39.304Z,47.73
2022-11-27T18:56:10.247Z,45.10
2022-11-27T18:58:40.166Z,34.47
2022-11-27T19:01:12.761Z,31.70
2022-11-27T19:03:43.138Z,39.67
2022-11-27T19:06:13.952Z,36.10
2022-11-27T19:08:44.597Z,37.57
2022-11-27T19:11:17.766Z,35.63
2022-11-27T19:13:48.314Z,37.60
2022-11-27T19:16:21.019Z,39.07
2022-11-27T19:18:50.909Z,31.23
2022-11-27T19:21:21.648Z,48.87
2022-11-27T19:23:51.665Z,47.00
2022-11-27T19:26:23.008Z,63.03
2022-11-27T19:28:53.156Z,60.57
2022-11-27T19:31:25.030Z,56.37
2022-11-27T19:33:55.194Z,43.13
2022-11-27T19:36:26.989Z,45.97
2022-11-27T19:38:57.352Z,44.13
2022-11-27T19:41:29.631Z,46.83
2022-11-27T19:43:59.604Z,47.93
2022-11-27T19:46:31.658Z,57.83
2022-11-27T19:49:02.272Z,55.33
2022-11-27T19:51:33.915Z,71.60
2022-11-27T19:54:10.048Z,55.27
2022-11-27T19:56:43.301Z,68.30
2022-11-27T19:59:13.323Z,57.87
2022-11-27T20:01:45.038Z,53.57
2022-11-27T20:04:15.343Z,50.27
2022-11-27T20:06:45.497Z,45.00
2022-11-27T20:09:16.341Z,46.27
2022-11-27T20:11:49.328Z,40.10
2022-11-27T20:14:19.569Z,48.30
2022-11-27T20:16:51.409Z,45.60
2022-11-27T20:19:24.123Z,43.00
2022-11-27T20:21:56.147Z,74.93
2022-11-27T20:24:26.245Z,59.30
2022-11-27T20:26:56.345Z,49.90
2022-11-27T20:29:26.393Z,36.67
2022-11-27T20:31:58.391Z,36.73
2022-11-27T20:34:30.407Z,39.30
2022-11-27T20:37:00.438Z,35.67
2022-11-27T20:39:32.832Z,43.03
2022-11-27T20:42:02.922Z,54.80
2022-11-27T20:44:33.063Z,62.00
2022-11-27T20:47:04.692Z,57.03
2022-11-27T20:49:34.856Z,46.37
2022-11-27T20:52:05.629Z,41.57
2022-11-27T20:54:35.603Z,45.53
2022-11-27T20:57:05.494Z,43.30
2022-11-27T20:59:34.444Z,39.77
2022-11-27T21:02:05.441Z,50.97
2022-11-27T21:04:34.805Z,38.40
2022-11-27T21:07:03.804Z,27.90
2022-11-27T21:09:32.616Z,22.17
2022-11-27T21:12:01.767Z,24.10
2022-11-27T21:14:30.798Z,27.97
2022-11-27T21:17:04.450Z,33.00
2022-11-27T21:19:34.935Z,31.80
2022-11-27T21:22:03.622Z,30.77
2022-11-27T21:24:32.196Z,22.67
2022-11-27T21:27:00.635Z,32.27
2022-11-27T21:29:28.805Z,25.87
2022-11-27T21:31:57.345Z,27.93
2022-11-27T21:34:25.735Z,31.70
2022-11-27T21:36:55.068Z,33.50
2022-11-27T21:39:24.624Z,28.97
2022-11-27T21:41:54.329Z,27.80
2022-11-27T21:44:22.556Z,38.27
2022-11-27T21:46:50.556Z,28.30
2022-11-27T21:49:19.294Z,35.73
2022-11-27T21:51:47.223Z,44.70
2022-11-27T21:54:17.665Z,31.63
2022-11-27T21:56:45.647Z,31.43
2022-11-27T21:59:14.422Z,30.07
2022-11-27T22:01:42.483Z,24.30
2022-11-27T22:04:10.553Z,27.40
2022-11-27T22:06:39.211Z,19.63
2022-11-27T22:09:11.876Z,25.27
2022-11-27T22:11:44.561Z,31.43
2022-11-27T22:14:12.778Z,33.33
2022-11-27T22:16:45.141Z,30.53
2022-11-27T22:19:14.516Z,21.63
2022-11-27T22:21:42.629Z,21.50
2022-11-27T22:24:15.081Z,30.23
2022-11-27T22:26:48.216Z,27.80
2022-11-27T22:29:16.176Z,31.67
2022-11-27T22:31:44.351Z,23.80
2022-11-27T22:34:12.323Z,22.13
2022-11-27T22:36:40.286Z,22.80
2022-11-27T22:39:08.511Z,17.27
2022-11-27T22:41:37.193Z,14.83
2022-11-27T22:44:07.654Z,21.20
2022-11-27T22:46:36.500Z,18.10
2022-11-27T22:49:05.501Z,21.20
2022-11-27T22:51:34.553Z,19.90
2022-11-27T22:54:02.606Z,22.93
2022-11-27T22:56:30.643Z,25.40
2022-11-27T22:59:24.671Z,24.23
2022-11-27T23:01:49.707Z,24.17
2022-11-27T23:04:17.697Z,21.83
2022-11-27T23:06:48.171Z,24.87
2022-11-27T23:09:16.426Z,26.00
2022-11-27T23:11:44.495Z,43.00
2022-11-27T23:14:12.721Z,51.70
2022-11-27T23:16:40.753Z,36.97
2022-11-27T23:19:10.141Z,30.30
2022-11-27T23:21:38.914Z,27.27
2022-11-27T23:24:07.319Z,33.57
2022-11-27T23:26:35.368Z,28.90
2022-11-27T23:29:03.301Z,39.13
2022-11-27T23:31:35.089Z,38.87
2022-11-27T23:34:04.205Z,31.03
2022-11-27T23:36:33.523Z,31.30
2022-11-27T23:39:01.741Z,34.30
2022-11-27T23:41:29.906Z,34.73
2022-11-27T23:43:58.096Z,33.80
2022-11-27T23:46:27.648Z,37.97
2022-11-27T23:48:55.650Z,40.87
2022-11-27T23:51:24.715Z,37.63
2022-11-27T23:53:54.077Z,32.63
2022-11-27T23:56:23.000Z,50.10
2022-11-27T23:58:50.987Z,43.47
